createdAt,value
2018-05-24T00:01:05.207Z,8.63
2018-05-24T00:03:32.744Z,8.53
2018-05-24T00:06:00.325Z,9.03
2018-05-24T00:08:28.295Z,8.97
2018-05-24T00:10:55.846Z,9.03
2018-05-24T00:13:23.419Z,8.27
2018-05-24T00:15:51.231Z,8.33
2018-05-24T00:18:19.561Z,9.47
2018-05-24T00:20:47.231Z,8.83
2018-05-24T00:23:14.778Z,9.03
2018-05-24T00:25:42.345Z,8.50
2018-05-24T00:28:09.881Z,8.90
2018-05-24T00:30:37.442Z,8.47
2018-05-24T00:33:05.013Z,8.80
2018-05-24T00:35:32.558Z,9.47
2018-05-24T00:38:00.180Z,8.40
2018-05-24T00:40:27.753Z,8.97
2018-05-24T00:42:55.295Z,9.10
2018-05-24T00:45:22.872Z,8.70
2018-05-24T00:47:51.219Z,9.10
2018-05-24T00:50:18.776Z,9.47
2018-05-24T00:52:46.302Z,9.93
2018-05-24T00:55:25.559Z,8.73
2018-05-24T00:57:53.140Z,9.03
2018-05-24T01:00:20.712Z,8.20
2018-05-24T01:02:48.329Z,9.03
2018-05-24T01:05:15.867Z,8.17
2018-05-24T01:07:43.425Z,8.80
2018-05-24T01:10:10.988Z,9.33
2018-05-24T01:12:38.609Z,9.27
2018-05-24T01:15:06.157Z,9.13
2018-05-24T01:17:33.729Z,9.00
2018-05-24T01:20:01.309Z,8.77
2018-05-24T01:22:28.893Z,8.37
2018-05-24T01:24:56.594Z,8.53
2018-05-24T01:27:24.194Z,8.83
2018-05-24T01:29:51.825Z,9.10
2018-05-24T01:32:19.383Z,8.83
2018-05-24T01:34:47.751Z,9.20
2018-05-24T01:37:27.063Z,8.37
2018-05-24T01:39:54.666Z,8.70
2018-05-24T01:42:22.236Z,8.60
2018-05-24T01:44:50.010Z,9.60
2018-05-24T01:47:17.625Z,9.27
2018-05-24T01:49:45.161Z,9.77
2018-05-24T01:52:12.770Z,8.80
2018-05-24T01:54:40.317Z,9.97
2018-05-24T01:57:07.887Z,8.97
2018-05-24T01:59:35.417Z,9.27
2018-05-24T02:02:03.052Z,9.17
2018-05-24T02:04:30.688Z,8.57
2018-05-24T02:06:59.088Z,8.43
2018-05-24T02:09:27.420Z,9.23
2018-05-24T02:11:54.969Z,8.67
2018-05-24T02:14:22.538Z,9.43
2018-05-24T02:16:50.075Z,9.17
2018-05-24T02:19:17.673Z,9.37
2018-05-24T02:21:45.246Z,9.00
2018-05-24T02:24:12.806Z,9.73
2018-05-24T02:26:40.390Z,9.40
2018-05-24T02:29:07.987Z,9.43
2018-05-24T02:31:35.589Z,11.00
2018-05-24T02:34:03.181Z,10.30
2018-05-24T02:36:30.736Z,10.80
2018-05-24T02:38:58.384Z,10.30
2018-05-24T02:41:25.924Z,10.17
2018-05-24T02:43:53.494Z,11.50
2018-05-24T02:46:21.080Z,10.57
2018-05-24T02:48:48.620Z,9.90
2018-05-24T02:51:16.965Z,10.93
2018-05-24T02:53:44.524Z,11.80
2018-05-24T02:56:12.053Z,11.57
2018-05-24T02:58:39.638Z,11.43
2018-05-24T03:01:07.178Z,10.53
2018-05-24T03:03:34.718Z,10.67
2018-05-24T03:06:02.292Z,11.23
2018-05-24T03:08:29.841Z,11.67
2018-05-24T03:10:57.421Z,11.50
2018-05-24T03:13:24.982Z,11.50
2018-05-24T03:15:52.516Z,11.27
2018-05-24T03:18:20.095Z,11.60
2018-05-24T03:20:47.654Z,10.53
2018-05-24T03:23:15.231Z,11.30
2018-05-24T03:25:42.870Z,10.73
2018-05-24T03:28:10.437Z,11.17
2018-05-24T03:30:38.021Z,11.97
2018-05-24T03:33:05.610Z,10.83
2018-05-24T03:35:33.169Z,11.67
2018-05-24T03:38:00.743Z,10.93
2018-05-24T03:40:28.285Z,11.67
2018-05-24T03:42:55.921Z,11.60
2018-05-24T03:45:23.516Z,11.07
2018-05-24T03:47:51.848Z,11.47
2018-05-24T03:50:19.369Z,11.10
2018-05-24T03:52:46.964Z,11.53
2018-05-24T03:55:14.532Z,11.73
2018-05-24T03:57:42.084Z,11.80
2018-05-24T04:00:21.313Z,11.13
2018-05-24T04:03:00.574Z,11.00
2018-05-24T04:05:28.112Z,11.37
2018-05-24T04:07:55.716Z,11.90
2018-05-24T04:10:24.133Z,11.23
2018-05-24T04:12:51.763Z,11.33
2018-05-24T04:15:19.359Z,11.43
2018-05-24T04:17:46.951Z,10.80
2018-05-24T04:20:14.538Z,10.47
2018-05-24T04:22:42.104Z,11.77
2018-05-24T04:25:10.403Z,11.57
2018-05-24T04:27:38.047Z,11.23
2018-05-24T04:30:05.609Z,11.53
2018-05-24T04:32:33.194Z,11.63
2018-05-24T04:35:00.767Z,11.63
2018-05-24T04:37:28.322Z,11.83
2018-05-24T04:39:55.908Z,12.10
2018-05-24T04:42:23.724Z,11.73
2018-05-24T04:44:51.334Z,11.80
2018-05-24T04:47:18.904Z,11.67
2018-05-24T04:49:46.508Z,11.93
2018-05-24T04:52:14.136Z,13.93
2018-05-24T04:54:41.673Z,11.70
2018-05-24T04:57:10.425Z,12.73
2018-05-24T04:59:38.024Z,11.67
2018-05-24T05:02:05.571Z,11.80
2018-05-24T05:04:33.196Z,10.70
2018-05-24T05:07:01.523Z,11.33
2018-05-24T05:09:29.089Z,11.40
2018-05-24T05:11:56.882Z,11.93
2018-05-24T05:14:24.468Z,10.67
2018-05-24T05:16:52.049Z,10.73
2018-05-24T05:19:19.628Z,9.73
2018-05-24T05:21:47.957Z,11.30
2018-05-24T05:24:15.513Z,11.33
2018-05-24T05:26:43.121Z,10.57
2018-05-24T05:29:10.654Z,11.33
2018-05-24T05:31:38.243Z,10.37
2018-05-24T05:34:05.921Z,10.43
2018-05-24T05:36:34.275Z,11.07
2018-05-24T05:39:01.960Z,10.80
2018-05-24T05:41:30.320Z,11.67
2018-05-24T05:43:57.896Z,11.07
2018-05-24T05:46:25.451Z,11.53
2018-05-24T05:48:53.012Z,10.40
2018-05-24T05:51:20.626Z,10.10
2018-05-24T05:53:48.214Z,10.93
2018-05-24T05:56:15.775Z,12.33
2018-05-24T05:58:43.442Z,12.00
2018-05-24T06:01:11.062Z,12.13
2018-05-24T06:03:38.663Z,14.40
2018-05-24T06:06:06.510Z,12.77
2018-05-24T06:08:34.087Z,11.30
2018-05-24T06:11:01.656Z,11.17
2018-05-24T06:13:29.209Z,10.53
2018-05-24T06:15:56.765Z,10.23
2018-05-24T06:18:24.327Z,10.47
2018-05-24T06:20:51.908Z,11.60
2018-05-24T06:23:19.553Z,11.30
2018-05-24T06:25:47.314Z,11.17
2018-05-24T06:28:15.011Z,11.23
2018-05-24T06:30:42.593Z,11.30
2018-05-24T06:33:10.227Z,10.57
2018-05-24T06:35:37.785Z,11.40
2018-05-24T06:38:05.413Z,10.80
2018-05-24T06:40:33.467Z,10.27
2018-05-24T06:43:01.019Z,10.00
2018-05-24T06:45:28.587Z,9.57
2018-05-24T06:47:56.180Z,11.30
2018-05-24T06:50:23.752Z,10.00
2018-05-24T06:52:51.301Z,9.20
2018-05-24T06:55:19.470Z,9.67
2018-05-24T06:57:47.311Z,8.73
2018-05-24T07:00:14.969Z,9.40
2018-05-24T07:02:42.563Z,9.03
2018-05-24T07:05:10.171Z,8.83
2018-05-24T07:07:37.772Z,8.30
2018-05-24T07:10:05.315Z,10.03
2018-05-24T07:12:32.995Z,9.20
2018-05-24T07:15:00.570Z,9.83
2018-05-24T07:17:28.146Z,9.93
2018-05-24T07:19:55.704Z,9.60
2018-05-24T07:22:23.353Z,10.17
2018-05-24T07:24:50.937Z,9.30
2018-05-24T07:27:18.575Z,8.90
2018-05-24T07:29:46.240Z,7.83
2018-05-24T07:32:13.767Z,7.77
2018-05-24T07:34:41.343Z,7.47
2018-05-24T07:37:09.004Z,8.40
2018-05-24T07:39:36.640Z,8.70
2018-05-24T07:42:04.257Z,8.17
2018-05-24T07:44:31.802Z,9.30
2018-05-24T07:46:59.393Z,9.20
2018-05-24T07:49:27.015Z,8.90
2018-05-24T07:51:54.574Z,8.80
2018-05-24T07:54:22.190Z,9.53
2018-05-24T07:56:49.860Z,8.83
2018-05-24T07:59:17.453Z,8.73
2018-05-24T08:01:45.836Z,7.87
2018-05-24T08:04:13.342Z,7.43
2018-05-24T08:06:40.976Z,7.30
2018-05-24T08:09:08.519Z,7.57
2018-05-24T08:11:36.079Z,6.53
2018-05-24T08:14:03.601Z,6.93
2018-05-24T08:16:31.180Z,8.23
2018-05-24T08:18:58.805Z,6.13
2018-05-24T08:21:26.336Z,5.50
2018-05-24T08:23:53.902Z,5.73
2018-05-24T08:26:21.473Z,5.57
2018-05-24T08:28:49.068Z,4.87
2018-05-24T08:31:16.680Z,5.37
2018-05-24T08:33:44.565Z,5.57
2018-05-24T08:36:12.247Z,5.20
2018-05-24T08:38:39.845Z,5.03
2018-05-24T08:41:08.216Z,3.70
2018-05-24T08:43:35.784Z,4.23
2018-05-24T08:46:03.374Z,3.70
2018-05-24T08:48:31.099Z,3.73
2018-05-24T08:50:58.734Z,3.83
2018-05-24T08:53:26.407Z,3.70
2018-05-24T08:55:53.981Z,3.87
2018-05-24T08:58:21.556Z,4.10
2018-05-24T09:00:49.117Z,4.90
2018-05-24T09:03:16.867Z,5.30
2018-05-24T09:05:44.429Z,4.53
2018-05-24T09:08:12.053Z,4.80
2018-05-24T09:10:40.381Z,4.33
2018-05-24T09:13:08.043Z,4.23
2018-05-24T09:15:35.690Z,4.77
2018-05-24T09:18:03.218Z,4.43
2018-05-24T09:20:30.947Z,4.43
2018-05-24T09:22:58.429Z,4.70
2018-05-24T09:25:26.173Z,4.87
2018-05-24T09:27:53.804Z,4.83
2018-05-24T09:30:21.416Z,5.70
2018-05-24T09:32:49.833Z,5.57
2018-05-24T09:35:17.405Z,6.17
2018-05-24T09:37:44.985Z,5.23
2018-05-24T09:40:12.648Z,5.47
2018-05-24T09:42:40.255Z,5.53
2018-05-24T09:45:08.161Z,4.80
2018-05-24T09:47:35.826Z,5.30
2018-05-24T09:50:03.388Z,4.97
2018-05-24T09:52:30.997Z,5.50
2018-05-24T09:54:58.609Z,5.50
2018-05-24T09:57:27.027Z,4.77
2018-05-24T09:59:55.374Z,4.87
2018-05-24T10:02:22.925Z,4.50
2018-05-24T10:04:50.551Z,4.37
2018-05-24T10:07:18.083Z,4.20
2018-05-24T10:09:46.428Z,4.33
2018-05-24T10:12:13.972Z,4.13
2018-05-24T10:14:41.518Z,4.47
2018-05-24T10:17:09.142Z,5.03
2018-05-24T10:19:37.496Z,4.50
2018-05-24T10:22:05.048Z,5.20
2018-05-24T10:24:32.647Z,4.67
2018-05-24T10:27:00.248Z,4.70
2018-05-24T10:29:27.927Z,4.40
2018-05-24T10:31:55.498Z,4.57
2018-05-24T10:34:23.434Z,4.70
2018-05-24T10:36:50.972Z,5.60
2018-05-24T10:39:19.260Z,6.13
2018-05-24T10:41:46.816Z,6.00
2018-05-24T10:44:14.350Z,6.80
2018-05-24T10:46:41.991Z,7.53
2018-05-24T10:49:09.788Z,7.60
2018-05-24T10:51:38.181Z,8.27
2018-05-24T10:54:05.927Z,7.93
2018-05-24T10:56:34.276Z,8.20
2018-05-24T10:59:01.835Z,8.20
2018-05-24T11:01:29.409Z,7.20
2018-05-24T11:03:57.005Z,7.00
2018-05-24T11:06:24.675Z,8.00
2018-05-24T11:08:53.099Z,8.23
2018-05-24T11:11:21.427Z,7.17
2018-05-24T11:13:49.036Z,8.63
2018-05-24T11:16:16.575Z,8.13
2018-05-24T11:18:44.146Z,8.27
2018-05-24T11:21:11.753Z,7.50
2018-05-24T11:23:39.379Z,8.03
2018-05-24T11:26:06.944Z,8.23
2018-05-24T11:28:34.596Z,7.13
2018-05-24T11:31:02.174Z,7.57
2018-05-24T11:33:29.759Z,7.20
2018-05-24T11:35:58.166Z,7.80
2018-05-24T11:38:25.911Z,7.90
2018-05-24T11:40:53.490Z,8.00
2018-05-24T11:43:21.080Z,6.90
2018-05-24T11:45:48.608Z,8.53
2018-05-24T11:48:16.188Z,7.90
2018-05-24T11:50:44.092Z,6.90
2018-05-24T11:53:11.670Z,7.67
2018-05-24T11:55:40.000Z,6.80
2018-05-24T11:58:07.575Z,7.50
2018-05-24T12:00:35.167Z,7.77
2018-05-24T12:03:02.764Z,7.03
2018-05-24T12:05:30.319Z,7.27
2018-05-24T12:07:57.865Z,7.10
2018-05-24T12:10:25.478Z,6.37
2018-05-24T12:12:54.197Z,7.37
2018-05-24T12:15:21.907Z,6.73
2018-05-24T12:17:49.449Z,7.57
2018-05-24T12:20:17.065Z,7.33
2018-05-24T12:22:46.085Z,7.47
2018-05-24T12:25:13.617Z,7.23
2018-05-24T12:27:41.229Z,6.90
2018-05-24T12:30:08.962Z,7.77
2018-05-24T12:32:37.751Z,6.80
2018-05-24T12:35:05.314Z,7.07
2018-05-24T12:37:32.868Z,6.50
2018-05-24T12:40:00.456Z,7.00
2018-05-24T12:42:27.992Z,6.00
2018-05-24T12:44:55.581Z,5.87
2018-05-24T12:47:23.452Z,6.53
2018-05-24T12:49:51.128Z,6.23
2018-05-24T12:52:18.754Z,6.77
2018-05-24T12:54:46.331Z,6.90
2018-05-24T12:57:13.886Z,6.30
2018-05-24T12:59:41.568Z,6.50
2018-05-24T13:02:09.160Z,5.87
2018-05-24T13:04:36.737Z,5.17
2018-05-24T13:07:04.392Z,5.10
2018-05-24T13:09:31.962Z,5.10
2018-05-24T13:11:59.531Z,5.67
2018-05-24T13:14:27.080Z,5.50
2018-05-24T13:16:54.659Z,5.80
2018-05-24T13:19:22.261Z,5.20
2018-05-24T13:21:49.956Z,5.00
2018-05-24T13:24:17.511Z,5.23
2018-05-24T13:26:45.880Z,5.23
2018-05-24T13:29:13.590Z,5.67
2018-05-24T13:31:41.190Z,5.47
2018-05-24T13:34:08.780Z,4.80
2018-05-24T13:36:37.132Z,5.30
2018-05-24T13:39:05.572Z,4.67
2018-05-24T13:41:33.206Z,4.80
2018-05-24T13:44:00.737Z,4.40
2018-05-24T13:46:28.566Z,4.43
2018-05-24T13:48:56.888Z,4.50
2018-05-24T13:51:24.520Z,4.60
2018-05-24T13:53:52.285Z,4.47
2018-05-24T13:56:19.917Z,4.40
2018-05-24T13:58:47.464Z,4.10
2018-05-24T14:01:15.039Z,4.30
2018-05-24T14:03:42.624Z,4.67
2018-05-24T14:06:10.156Z,5.10
2018-05-24T14:08:37.740Z,5.73
2018-05-24T14:11:05.485Z,6.03
2018-05-24T14:13:33.179Z,5.90
2018-05-24T14:16:00.764Z,6.70
2018-05-24T14:18:29.118Z,8.23
2018-05-24T14:20:56.882Z,8.40
2018-05-24T14:23:24.418Z,8.03
2018-05-24T14:25:52.030Z,7.93
2018-05-24T14:28:19.664Z,7.10
2018-05-24T14:30:47.235Z,7.40
2018-05-24T14:33:14.867Z,7.07
2018-05-24T14:35:42.433Z,8.17
2018-05-24T14:38:09.963Z,8.13
2018-05-24T14:40:37.776Z,8.80
2018-05-24T14:43:05.391Z,10.00
2018-05-24T14:45:32.976Z,9.80
2018-05-24T14:48:00.613Z,10.30
2018-05-24T14:50:28.195Z,10.50
2018-05-24T14:52:55.822Z,10.60
2018-05-24T14:55:23.379Z,9.67
2018-05-24T14:57:50.956Z,9.80
2018-05-24T15:00:18.543Z,9.20
2018-05-24T15:02:46.101Z,9.07
2018-05-24T15:05:13.673Z,9.33
2018-05-24T15:07:41.238Z,8.47
2018-05-24T15:10:08.795Z,9.13
2018-05-24T15:12:36.389Z,8.13
2018-05-24T15:15:03.974Z,8.30
2018-05-24T15:17:31.539Z,8.43
2018-05-24T15:19:59.597Z,9.20
2018-05-24T15:22:27.961Z,7.83
2018-05-24T15:24:55.585Z,7.10
2018-05-24T15:27:23.200Z,7.00
2018-05-24T15:29:51.241Z,6.87
2018-05-24T15:32:19.120Z,6.80
2018-05-24T15:34:46.679Z,6.77
2018-05-24T15:37:15.045Z,6.93
2018-05-24T15:39:42.626Z,6.97
2018-05-24T15:42:11.048Z,6.80
2018-05-24T15:44:38.587Z,6.33
2018-05-24T15:47:06.232Z,6.57
2018-05-24T15:49:34.604Z,7.40
2018-05-24T15:52:02.946Z,6.60
2018-05-24T15:54:30.562Z,7.43
2018-05-24T15:56:58.152Z,7.33
2018-05-24T15:59:25.752Z,7.40
2018-05-24T16:01:54.075Z,7.10
2018-05-24T16:04:21.649Z,8.03
2018-05-24T16:06:49.221Z,8.03
2018-05-24T16:09:16.801Z,8.50
2018-05-24T16:11:44.434Z,9.13
2018-05-24T16:14:12.019Z,8.77
2018-05-24T16:16:39.576Z,8.90
2018-05-24T16:19:07.233Z,9.17
2018-05-24T16:21:34.849Z,9.60
2018-05-24T16:24:02.447Z,10.27
2018-05-24T16:26:30.016Z,9.47
2018-05-24T16:28:57.572Z,10.00
2018-05-24T16:31:25.136Z,11.63
2018-05-24T16:33:52.709Z,8.03
2018-05-24T16:36:20.288Z,8.40
2018-05-24T16:38:49.690Z,7.60
2018-05-24T16:41:17.222Z,7.90
2018-05-24T16:43:44.810Z,8.40
2018-05-24T16:46:13.117Z,7.37
2018-05-24T16:48:40.759Z,7.37
2018-05-24T16:51:08.331Z,9.87
2018-05-24T16:53:35.880Z,10.17
2018-05-24T16:56:04.224Z,9.43
2018-05-24T16:58:32.613Z,10.43
2018-05-24T17:01:00.162Z,10.77
2018-05-24T17:03:28.599Z,9.13
2018-05-24T17:05:56.172Z,9.27
2018-05-24T17:08:24.005Z,9.80
2018-05-24T17:10:52.348Z,9.10
2018-05-24T17:13:19.899Z,8.47
2018-05-24T17:15:47.538Z,8.73
2018-05-24T17:18:15.068Z,8.37
2018-05-24T17:20:42.660Z,8.50
2018-05-24T17:25:52.210Z,9.90
2018-05-24T17:28:19.798Z,9.20
2018-05-24T17:30:47.438Z,9.90
2018-05-24T17:33:15.020Z,11.10
2018-05-24T17:35:42.841Z,11.20
2018-05-24T17:38:10.446Z,11.63
2018-05-24T17:40:38.055Z,11.77
2018-05-24T17:43:05.642Z,12.20
2018-05-24T17:45:33.410Z,9.97
2018-05-24T17:48:01.068Z,9.70
2018-05-24T17:50:29.038Z,8.03
2018-05-24T17:52:56.704Z,7.77
2018-05-24T17:55:24.327Z,7.77
2018-05-24T17:57:51.888Z,6.67
2018-05-24T18:00:20.184Z,7.10
2018-05-24T18:02:47.815Z,7.30
2018-05-24T18:05:15.369Z,7.37
2018-05-24T18:07:42.943Z,7.77
2018-05-24T18:10:11.271Z,7.43
2018-05-24T18:12:39.695Z,6.97
2018-05-24T18:15:08.008Z,7.17
2018-05-24T18:17:35.681Z,7.70
2018-05-24T18:20:03.212Z,7.13
2018-05-24T18:22:30.827Z,6.23
2018-05-24T18:24:58.415Z,6.50
2018-05-24T18:27:25.975Z,7.33
2018-05-24T18:29:54.307Z,7.30
2018-05-24T18:32:21.866Z,7.10
2018-05-24T18:34:49.416Z,6.47
2018-05-24T18:37:17.042Z,6.17
2018-05-24T18:39:45.415Z,5.87
2018-05-24T18:42:13.770Z,6.83
2018-05-24T18:44:41.361Z,6.47
2018-05-24T18:47:09.666Z,5.43
2018-05-24T18:49:37.234Z,5.37
2018-05-24T18:52:04.838Z,4.90
2018-05-24T18:54:32.458Z,5.43
2018-05-24T18:56:59.999Z,4.47
2018-05-24T18:59:27.526Z,4.67
2018-05-24T19:01:55.872Z,4.60
2018-05-24T19:04:23.416Z,4.23
2018-05-24T19:06:51.008Z,5.03
2018-05-24T19:09:19.258Z,4.17
2018-05-24T19:11:46.824Z,4.10
2018-05-24T19:14:14.392Z,4.73
2018-05-24T19:16:41.947Z,4.43
2018-05-24T19:19:09.508Z,4.83
2018-05-24T19:21:37.120Z,4.53
2018-05-24T19:24:04.652Z,4.57
2018-05-24T19:26:32.238Z,5.17
2018-05-24T19:28:59.802Z,4.80
2018-05-24T19:31:27.418Z,4.20
2018-05-24T19:33:54.970Z,4.37
2018-05-24T19:36:22.513Z,4.63
2018-05-24T19:38:50.092Z,4.77
2018-05-24T19:41:17.630Z,4.33
2018-05-24T19:43:45.282Z,4.00
2018-05-24T19:46:12.913Z,4.47
2018-05-24T19:48:41.256Z,4.53
2018-05-24T19:51:09.156Z,5.17
2018-05-24T19:53:36.680Z,5.90
2018-05-24T19:56:04.259Z,5.70
2018-05-24T19:58:32.573Z,6.13
2018-05-24T20:01:00.149Z,5.23
2018-05-24T20:03:27.683Z,5.57
2018-05-24T20:05:55.249Z,5.53
2018-05-24T20:08:22.852Z,5.20
2018-05-24T20:10:50.444Z,5.47
2018-05-24T20:13:17.988Z,5.40
2018-05-24T20:15:45.564Z,4.90
2018-05-24T20:18:13.170Z,5.40
2018-05-24T20:20:40.756Z,5.83
2018-05-24T20:23:08.370Z,6.03
2018-05-24T20:25:35.920Z,5.63
2018-05-24T20:28:04.309Z,4.87
2018-05-24T20:30:31.922Z,5.90
2018-05-24T20:32:59.508Z,5.63
2018-05-24T20:35:27.226Z,5.63
2018-05-24T20:37:54.787Z,5.47
2018-05-24T20:40:22.407Z,5.23
2018-05-24T20:42:50.769Z,5.90
2018-05-24T20:45:18.320Z,5.30
2018-05-24T20:47:45.863Z,5.40
2018-05-24T20:50:13.436Z,4.90
2018-05-24T20:52:41.010Z,6.00
2018-05-24T20:55:09.311Z,6.50
2018-05-24T20:57:36.891Z,7.00
2018-05-24T21:00:04.501Z,6.87
2018-05-24T21:02:32.071Z,6.03
2018-05-24T21:05:00.400Z,7.10
2018-05-24T21:07:28.021Z,7.00
2018-05-24T21:09:55.716Z,7.43
2018-05-24T21:12:23.264Z,6.20
2018-05-24T21:14:50.911Z,4.90
2018-05-24T21:17:18.491Z,5.07
2018-05-24T21:19:46.076Z,5.20
2018-05-24T21:22:13.652Z,5.57
2018-05-24T21:24:41.222Z,5.60
2018-05-24T21:27:08.818Z,6.83
2018-05-24T21:29:36.386Z,6.63
2018-05-24T21:32:03.953Z,7.47
2018-05-24T21:34:31.496Z,6.47
2018-05-24T21:36:59.062Z,6.10
2018-05-24T21:39:26.615Z,6.20
2018-05-24T21:41:54.401Z,6.20
2018-05-24T21:44:21.981Z,5.73
2018-05-24T21:46:49.543Z,6.23
2018-05-24T21:49:17.107Z,6.87
2018-05-24T21:51:44.731Z,8.73
2018-05-24T21:54:12.324Z,11.30
2018-05-24T21:56:39.865Z,9.43
2018-05-24T21:59:07.469Z,9.50
2018-05-24T22:01:35.039Z,9.57
2018-05-24T22:04:03.423Z,8.77
2018-05-24T22:06:31.764Z,7.50
2018-05-24T22:08:59.341Z,7.80
2018-05-24T22:11:26.935Z,6.97
2018-05-24T22:13:54.485Z,7.67
2018-05-24T22:16:22.853Z,6.63
2018-05-24T22:18:50.420Z,7.53
2018-05-24T22:21:17.984Z,6.20
2018-05-24T22:23:45.551Z,5.87
2018-05-24T22:26:13.875Z,6.93
2018-05-24T22:28:41.411Z,6.13
2018-05-24T22:31:09.037Z,5.43
2018-05-24T22:33:36.639Z,5.57
2018-05-24T22:36:04.198Z,4.77
2018-05-24T22:38:31.749Z,4.77
2018-05-24T22:40:59.344Z,4.60
2018-05-24T22:43:26.891Z,4.97
2018-05-24T22:45:54.459Z,4.67
2018-05-24T22:48:21.994Z,5.50
2018-05-24T22:50:49.526Z,4.63
2018-05-24T22:53:17.852Z,4.23
2018-05-24T22:55:45.438Z,3.53
2018-05-24T22:58:13.000Z,4.20
2018-05-24T23:00:41.358Z,3.47
2018-05-24T23:03:08.931Z,3.60
2018-05-24T23:05:36.501Z,3.13
2018-05-24T23:08:04.040Z,3.00
2018-05-24T23:10:31.659Z,2.70
2018-05-24T23:12:59.204Z,2.70
2018-05-24T23:15:26.775Z,3.07
2018-05-24T23:17:54.363Z,2.87
2018-05-24T23:20:21.912Z,3.00
2018-05-24T23:22:49.512Z,3.00
2018-05-24T23:25:17.085Z,3.03
2018-05-24T23:27:44.693Z,3.07
2018-05-24T23:30:12.218Z,3.20
2018-05-24T23:32:39.774Z,3.30
2018-05-24T23:35:07.347Z,3.30
2018-05-24T23:37:35.674Z,3.27
2018-05-24T23:40:03.240Z,3.10
2018-05-24T23:42:30.795Z,3.20
2018-05-24T23:44:58.385Z,3.00
2018-05-24T23:47:26.675Z,3.70
2018-05-24T23:49:54.297Z,3.03
2018-05-24T23:52:21.848Z,3.43
2018-05-24T23:54:49.415Z,4.17
2018-05-24T23:57:16.961Z,3.37
2018-05-24T23:59:44.531Z,3.53
